»·PEaware :: DAL327 KPHX-KSLC

DAL327 :: KPHX-KSLC

FLIGHT INFORMATION

Flight Status: Arrived
Operator:
Delta Air Lines
More flights by this operator :: More flights under this callsign
Pilot: Jim M. (18055)
Aircraft: BOEING 717-200
(B712)
More flights by this aircraft type
Origin: KPHX Phoenix Sky Harbor Intl
United States
Destination: KSLC Salt Lake City Intl
United States
More flights between these airports :: More routes between these airports
Route: MRBIL1 GCN BCE QWENN5
File this flight plan on PilotEdge
Remarks:
Altitude:
(Current/Filed)
34,000ft
Speed:
(Current/Filed)
450kts
Departed: 05-Oct-18 04:04 PM
Arrived: 05-Oct-18 05:17 PM
Distance/Time
Traveled:
441nm/1:13
Distance/Time
To Go:
Arrived

Flight Plot

Page will automatically refresh every two minutes.

Flight plan parsing failed; only flown route is shown


Map Options




Map Legend


Flown Route
Filed Route
Departure Airport
Arrival Airport
Navaid (VOR, NDB)
Fix

Horizontal Profiles

Position Reports

Time Latitude Longitude Heading Altitude Ground
Speed
05-Oct-18 15:22 33.436850 -112.009426 90 1143ft 0kts
05-Oct-18 15:23 33.436850 -112.009426 90 1143ft 0kts
05-Oct-18 15:24 33.436850 -112.009426 90 1143ft 0kts
05-Oct-18 15:25 33.436850 -112.009426 90 1143ft 0kts
05-Oct-18 15:26 33.436850 -112.009426 90 1143ft 0kts
05-Oct-18 15:27 33.436850 -112.009426 90 1143ft 0kts
05-Oct-18 15:28 33.436850 -112.009426 90 1143ft 0kts
05-Oct-18 15:29 33.436850 -112.009426 90 1143ft 0kts
05-Oct-18 15:30 33.436850 -112.009426 90 1143ft 0kts
05-Oct-18 15:31 33.436850 -112.009426 90 1143ft 0kts
05-Oct-18 15:32 33.436850 -112.009426 90 1143ft 0kts
05-Oct-18 15:33 33.436850 -112.009426 90 1143ft 0kts
05-Oct-18 15:34 33.436850 -112.009426 90 1143ft 0kts
05-Oct-18 15:35 33.436850 -112.009426 90 1143ft 0kts
05-Oct-18 15:36 33.436850 -112.009426 90 1143ft 0kts
05-Oct-18 15:37 33.436850 -112.009426 90 1143ft 0kts
05-Oct-18 15:38 33.436850 -112.009426 90 1143ft 0kts
05-Oct-18 15:39 33.436850 -112.009426 90 1143ft 0kts
05-Oct-18 15:40 33.436850 -112.009426 90 1143ft 0kts
05-Oct-18 15:41 33.436850 -112.009426 90 1143ft 0kts
05-Oct-18 15:42 33.436850 -112.009426 90 1143ft 0kts
05-Oct-18 15:43 33.436850 -112.009426 90 1143ft 0kts
05-Oct-18 15:44 33.436850 -112.009426 90 1143ft 0kts
05-Oct-18 15:45 33.436850 -112.009426 90 1143ft 0kts
05-Oct-18 15:46 33.436850 -112.009426 90 1143ft 0kts
05-Oct-18 15:47 33.436850 -112.009910 90 1143ft 2kts
05-Oct-18 15:48 33.436850 -112.010568 90 1143ft 0kts
05-Oct-18 15:49 33.436850 -112.010568 89 1143ft 0kts
05-Oct-18 15:50 33.436850 -112.010567 89 1143ft 0kts
05-Oct-18 15:51 33.436850 -112.010567 89 1143ft 0kts
05-Oct-18 15:52 33.436850 -112.010566 89 1143ft 0kts
05-Oct-18 15:53 33.437153 -112.010013 4 1143ft 7kts
05-Oct-18 15:54 33.437955 -112.009985 1 1143ft 0kts
05-Oct-18 15:55 33.438782 -112.010173 307 1143ft 7kts
05-Oct-18 15:56 33.439652 -112.011115 67 1143ft 5kts
05-Oct-18 15:57 33.439728 -112.008886 90 1143ft 7kts
05-Oct-18 15:58 33.439715 -112.005922 88 1143ft 8kts
05-Oct-18 15:59 33.439715 -112.002395 89 1143ft 10kts
05-Oct-18 16:00 33.439721 -111.998300 89 1143ft 15kts
05-Oct-18 16:01 33.439723 -111.993880 83 1143ft 10kts
05-Oct-18 16:02 33.439777 -111.992679 66 1143ft 0kts
05-Oct-18 16:03 33.439778 -111.992678 66 1143ft 0kts
05-Oct-18 16:04 33.439778 -111.992677 66 1143ft 0kts
05-Oct-18 16:05 33.440810 -111.992738 267 1143ft 0kts
05-Oct-18 16:06 33.440307 -112.022010 266 2252ft 149kts
05-Oct-18 16:07 33.439840 -112.086834 268 3693ft 240kts
05-Oct-18 16:08 33.438868 -112.169840 268 7226ft 257kts
05-Oct-18 16:09 33.483109 -112.226775 2 10865ft 278kts
05-Oct-18 16:10 33.556856 -112.186243 7 13662ft 324kts
05-Oct-18 16:11 33.648660 -112.130230 46 14721ft 416kts
05-Oct-18 16:12 33.729849 -112.025465 46 17067ft 441kts
05-Oct-18 16:13 33.808412 -111.907631 53 19204ft 463kts
05-Oct-18 16:14 33.888068 -111.781664 53 21099ft 483kts
05-Oct-18 16:15 33.970949 -111.650174 53 22808ft 502kts
05-Oct-18 16:16 34.078428 -111.541187 28 24392ft 514kts
05-Oct-18 16:17 34.200633 -111.447986 30 25923ft 525kts
05-Oct-18 16:18 34.325055 -111.352067 30 27217ft 535kts
05-Oct-18 16:19 34.451067 -111.254554 30 28650ft 538kts
05-Oct-18 16:20 34.578667 -111.160098 17 30329ft 530kts
05-Oct-18 16:21 34.715806 -111.159193 327 32184ft 478kts
05-Oct-18 16:22 34.810228 -111.258864 316 33864ft 457kts
05-Oct-18 16:23 34.918430 -111.341622 320 34101ft 457kts
05-Oct-18 16:24 35.025731 -111.423345 320 34118ft 456kts
05-Oct-18 16:25 35.133517 -111.505655 320 34143ft 455kts
05-Oct-18 16:26 35.240940 -111.587958 321 34161ft 455kts
05-Oct-18 16:27 35.348328 -111.670489 321 34158ft 455kts
05-Oct-18 16:28 35.455416 -111.753055 321 34153ft 454kts
05-Oct-18 16:29 35.562349 -111.835762 321 34148ft 454kts
05-Oct-18 16:30 35.668981 -111.918504 322 34147ft 454kts
05-Oct-18 16:31 35.775167 -112.001160 323 34150ft 445kts
05-Oct-18 16:32 35.878964 -112.082217 323 34153ft 442kts
05-Oct-18 16:33 35.989791 -112.148019 347 34159ft 456kts
05-Oct-18 16:34 36.117036 -112.160086 351 34152ft 459kts
05-Oct-18 16:35 36.244360 -112.171539 351 34143ft 458kts
05-Oct-18 16:36 36.371278 -112.182973 351 34130ft 457kts
05-Oct-18 16:37 36.498258 -112.194453 351 34116ft 456kts
05-Oct-18 16:38 36.603858 -112.204029 351 34101ft 456kts
05-Oct-18 16:39 36.751208 -112.217436 351 34088ft 454kts
05-Oct-18 16:40 36.855884 -112.226991 351 34084ft 453kts
05-Oct-18 16:41 37.002677 -112.240435 351 34102ft 452kts
05-Oct-18 16:42 37.107264 -112.250043 351 34114ft 451kts
05-Oct-18 16:43 37.232947 -112.261629 351 34129ft 452kts
05-Oct-18 16:44 37.357999 -112.273193 351 34147ft 451kts
05-Oct-18 16:45 37.483446 -112.284831 351 34167ft 451kts
05-Oct-18 16:46 37.608744 -112.296495 351 34183ft 451kts
05-Oct-18 16:47 37.734286 -112.298215 1 34191ft 457kts
05-Oct-18 16:48 37.861168 -112.280463 1 34189ft 457kts
05-Oct-18 16:49 37.987649 -112.263080 1 34181ft 458kts
05-Oct-18 16:50 38.114226 -112.245612 1 34171ft 457kts
05-Oct-18 16:51 38.240655 -112.228106 1 34163ft 457kts
05-Oct-18 16:52 38.366693 -112.210595 1 34156ft 456kts
05-Oct-18 16:53 38.492931 -112.192993 1 34164ft 456kts
05-Oct-18 16:54 38.618816 -112.175376 1 34165ft 455kts
05-Oct-18 16:55 38.744342 -112.157703 1 34164ft 454kts
05-Oct-18 16:56 38.869640 -112.140419 1 34152ft 452kts
05-Oct-18 16:57 38.994905 -112.123062 1 34153ft 451kts
05-Oct-18 16:58 39.120120 -112.105617 1 31774ft 444kts
05-Oct-18 16:59 39.241265 -112.088740 2 29527ft 438kts
05-Oct-18 17:00 39.364155 -112.071387 2 26766ft 442kts
05-Oct-18 17:01 39.485804 -112.054124 3 23240ft 433kts
05-Oct-18 17:02 39.601216 -112.037689 3 20853ft 408kts
05-Oct-18 17:03 39.714405 -112.021529 4 17316ft 405kts
05-Oct-18 17:04 39.821880 -112.006112 4 15401ft 365kts
05-Oct-18 17:05 39.915157 -111.992723 4 15111ft 321kts
05-Oct-18 17:06 40.000508 -111.980765 4 14273ft 283kts
05-Oct-18 17:07 40.076355 -111.970330 4 13361ft 264kts
05-Oct-18 17:08 40.147780 -111.960460 4 11668ft 254kts
05-Oct-18 17:09 40.217143 -111.950858 4 11013ft 250kts
05-Oct-18 17:10 40.286436 -111.939620 4 11008ft 251kts
05-Oct-18 17:11 40.357159 -111.931671 3 11025ft 268kts
05-Oct-18 17:12 40.432072 -111.933563 353 11009ft 270kts
05-Oct-18 17:13 40.505872 -111.942072 354 10042ft 256kts
05-Oct-18 17:14 40.571882 -111.949670 354 8533ft 219kts
05-Oct-18 17:15 40.628207 -111.956175 354 6414ft 184kts
05-Oct-18 17:16 40.677527 -111.961889 354 6060ft 151kts
05-Oct-18 17:17 40.717550 -111.967850 354 5346ft 140kts
05-Oct-18 17:18 40.756301 -111.971223 357 4617ft 139kts
05-Oct-18 17:19 40.788659 -111.974687 356 4235ft 36kts
05-Oct-18 17:20 40.792041 -111.976312 267 4235ft 3kts
05-Oct-18 17:21 40.792039 -111.976396 268 4235ft 0kts
05-Oct-18 17:22 40.791025 -111.978879 188 4235ft 11kts
05-Oct-18 17:23 40.788591 -111.979187 123 4235ft 7kts
05-Oct-18 17:24 40.788492 -111.978989 122 4235ft 0kts
05-Oct-18 17:25 40.788492 -111.978989 122 4235ft 0kts

Navigation Log

Ident Type
Flight plan parsing failed, navigation log unavailable